Time;durP1;ratioP1;P1;durP2;ratioP2;P2;SDS_P1;SDS_P2;PMS_P1;PMS_P2;Temp;Humidity;BMP_temperature;BMP_pressure;BME280_temperature;BME280_humidity;BME280_pressure;Samples;Min_cycle;Max_cycle;Signal;HPM_P1;HPM_P2
2024/02/10 00:00:19;;;;;;;;;;;11.00;67.60;;;;;;5105078;28;19915;-81
2024/02/10 00:03:12;;;;;;;;;;;11.00;72.70;;;;;;5091536;28;19908;-81
2024/02/10 00:05:45;;;;;;;;;;;11.00;73.80;;;;;;5112708;28;19908;-81
2024/02/10 00:08:13;;;;;;;;;;;11.00;74.20;;;;;;5116888;28;19908;-82
2024/02/10 00:10:43;;;;;;;;;;;11.00;78.10;;;;;;5116727;28;19966;-83
2024/02/10 00:13:20;;;;;;;;;;;11.00;77.00;;;;;;5132420;27;19957;-83
2024/02/10 00:15:57;;;;;;;;;;;11.00;76.00;;;;;;5116193;28;19908;-83
2024/02/10 00:18:22;;;;;;;;;;;11.10;72.00;;;;;;5098293;28;20014;-83
2024/02/10 00:20:52;;;;;;;;;;;11.10;72.80;;;;;;5098225;28;19966;-83
2024/02/10 00:23:44;;;;;;;;;;;11.10;67.40;;;;;;5103590;28;19922;-82
2024/02/10 00:26:15;;;;;;;;;;;11.20;71.50;;;;;;5086679;28;20278;-83
2024/02/10 00:29:12;;;;;;;;;;;11.20;62.70;;;;;;5078067;28;19916;-83
2024/02/10 00:31:44;;;;;;;;;;;11.20;66.60;;;;;;5081081;28;20367;-83
2024/02/10 00:34:13;;;;;;;;;;;11.10;66.60;;;;;;5098283;28;19931;-83
2024/02/10 00:36:44;;;;;;;;;;;11.20;67.40;;;;;;5093949;28;19920;-83
2024/02/10 00:39:13;;;;;;;;;;;11.20;63.10;;;;;;5095308;28;19908;-83
2024/02/10 00:41:45;;;;;;;;;;;11.30;56.70;;;;;;5083641;28;19908;-83
2024/02/10 00:44:38;;;;;;;;;;;11.30;59.60;;;;;;5098106;28;20420;-83
2024/02/10 00:47:12;;;;;;;;;;;11.30;53.80;;;;;;5116263;28;19911;-83
2024/02/10 00:49:43;;;;;;;;;;;11.30;54.30;;;;;;5115958;28;19908;-83
2024/02/10 00:52:09;;;;;;;;;;;11.40;45.90;;;;;;5097918;28;19919;-83
2024/02/10 00:54:45;;;;;;;;;;;11.40;47.00;;;;;;5097088;28;19912;-83
2024/02/10 01:00:17;;;;;;;;;;;11.40;52.50;;;;;;5115896;28;19915;-83
2024/02/10 01:05:47;;;;;;;;;;;11.50;40.00;;;;;;5095788;28;19915;-83
2024/02/10 01:08:46;;;;;;;;;;;11.50;43.40;;;;;;5102555;27;19998;-79
2024/02/10 01:11:15;;;;;;;;;;;11.50;40.00;;;;;;5113147;27;20347;-78
2024/02/10 01:14:13;;;;;;;;;;;11.50;43.30;;;;;;5112709;28;19908;-80
2024/02/10 01:16:43;;;;;;;;;;;11.50;43.40;;;;;;5095155;28;20347;-85
2024/02/10 01:19:13;;;;;;;;;;;11.50;43.20;;;;;;5115370;28;19915;-85
2024/02/10 01:21:43;;;;;;;;;;;11.50;43.20;;;;;;5115232;28;19911;-85
2024/02/10 01:24:13;;;;;;;;;;;11.50;43.20;;;;;;5110989;28;19923;-84
2024/02/10 01:26:43;;;;;;;;;;;11.50;40.00;;;;;;5110374;28;19912;-85
2024/02/10 01:29:13;;;;;;;;;;;11.50;43.50;;;;;;5097262;28;19908;-84
2024/02/10 01:31:43;;;;;;;;;;;11.50;43.40;;;;;;5096769;28;20003;-85
2024/02/10 01:34:15;;;;;;;;;;;11.50;43.20;;;;;;5096859;28;19912;-83
2024/02/10 01:36:43;;;;;;;;;;;11.50;43.20;;;;;;5085522;28;19912;-83
2024/02/10 01:39:13;;;;;;;;;;;11.50;40.00;;;;;;5108333;28;19912;-84
2024/02/10 01:41:43;;;;;;;;;;;11.50;43.30;;;;;;5109085;28;20327;-83
2024/02/10 01:44:18;;;;;;;;;;;11.40;39.90;;;;;;5097150;28;19961;-83
2024/02/10 01:49:43;;;;;;;;;;;11.50;40.00;;;;;;5121209;27;19912;-83
2024/02/10 01:52:13;;;;;;;;;;;11.50;43.30;;;;;;5126285;27;19916;-83
2024/02/10 01:54:47;;;;;;;;;;;11.50;40.00;;;;;;5117208;28;19962;-83
2024/02/10 01:57:43;;;;;;;;;;;11.50;47.50;;;;;;5116806;27;20427;-83
2024/02/10 02:00:16;;;;;;;;;;;11.40;43.10;;;;;;5079056;28;19912;-84
2024/02/10 02:03:13;;;;;;;;;;;11.40;43.10;;;;;;5098309;28;19915;-83
2024/02/10 02:05:43;;;;;;;;;;;11.40;43.10;;;;;;5105513;28;19915;-81
2024/02/10 02:08:13;;;;;;;;;;;11.40;39.90;;;;;;5114804;28;20381;-83
2024/02/10 02:10:43;;;;;;;;;;;11.40;43.20;;;;;;5101825;28;19919;-83
2024/02/10 02:13:21;;;;;;;;;;;11.40;39.90;;;;;;5096674;28;20359;-83
2024/02/10 02:16:13;;;;;;;;;;;11.40;43.20;;;;;;5112079;28;19912;-83
2024/02/10 02:19:13;;;;;;;;;;;11.40;43.10;;;;;;5099344;28;20000;-82
2024/02/10 02:21:43;;;;;;;;;;;11.40;43.10;;;;;;5088307;28;20287;-83
2024/02/10 02:24:13;;;;;;;;;;;11.40;43.10;;;;;;5095459;28;19968;-83
2024/02/10 02:26:43;;;;;;;;;;;11.30;43.20;;;;;;5093514;28;19912;-83
2024/02/10 02:29:13;;;;;;;;;;;11.30;39.80;;;;;;5108666;28;19908;-83
2024/02/10 02:31:43;;;;;;;;;;;11.30;39.80;;;;;;5096466;28;19912;-83
2024/02/10 02:37:13;;;;;;;;;;;11.30;39.80;;;;;;5125041;27;19908;-83
2024/02/10 02:39:44;;;;;;;;;;;11.30;43.10;;;;;;5109142;27;19919;-83
2024/02/10 02:42:13;;;;;;;;;;;11.30;39.80;;;;;;5123511;27;19932;-83
2024/02/10 02:44:44;;;;;;;;;;;11.30;43.10;;;;;;5111719;28;19915;-83
2024/02/10 02:47:13;;;;;;;;;;;11.30;43.00;;;;;;5105797;28;19916;-83
2024/02/10 02:49:43;;;;;;;;;;;11.30;43.00;;;;;;5113840;27;19907;-83
2024/02/10 02:52:13;;;;;;;;;;;11.30;43.00;;;;;;5122547;27;19915;-83
2024/02/10 02:54:43;;;;;;;;;;;11.20;43.00;;;;;;5134271;27;19998;-83
2024/02/10 02:57:18;;;;;;;;;;;11.20;39.70;;;;;;5120934;27;19919;-84
2024/02/10 03:00:13;;;;;;;;;;;11.20;43.20;;;;;;5124485;27;20320;-83
2024/02/10 03:02:44;;;;;;;;;;;11.20;43.00;;;;;;5098182;27;20310;-82
2024/02/10 03:05:13;;;;;;;;;;;11.20;39.70;;;;;;5137288;27;19918;-83
2024/02/10 03:07:45;;;;;;;;;;;11.20;47.10;;;;;;5135297;27;20501;-83
2024/02/10 03:10:13;;;;;;;;;;;11.20;39.70;;;;;;5099643;28;19912;-83
2024/02/10 03:12:43;;;;;;;;;;;11.20;43.00;;;;;;5100155;28;19907;-83
2024/02/10 03:15:14;;;;;;;;;;;11.10;42.90;;;;;;5123931;27;19907;-83
2024/02/10 03:17:39;;;;;;;;;;;11.10;42.90;;;;;;5100260;28;19908;-83
2024/02/10 03:20:13;;;;;;;;;;;11.10;43.00;;;;;;5117874;28;19930;-83
2024/02/10 03:25:42;;;;;;;;;;;11.10;42.90;;;;;;5127203;27;19923;-83
2024/02/10 03:31:11;;;;;;;;;;;11.10;43.00;;;;;;5117268;28;19919;-83
2024/02/10 03:39:42;;;;;;;;;;;11.10;39.60;;;;;;5108011;27;19964;-83
2024/02/10 03:42:38;;;;;;;;;;;11.10;42.90;;;;;;5112220;27;19908;-83
2024/02/10 03:45:37;;;;;;;;;;;11.10;39.60;;;;;;5130098;27;20425;-83
2024/02/10 03:51:43;;;;;;;;;;;11.10;42.90;;;;;;5116987;28;19965;-83
2024/02/10 03:54:31;;;;;;;;;;;11.10;42.80;;;;;;5106634;27;19954;-83
2024/02/10 04:00:10;;;;;;;;;;;11.20;43.00;;;;;;5116731;28;19950;-83
2024/02/10 04:02:36;;;;;;;;;;;11.10;42.80;;;;;;5078620;28;19962;-83
2024/02/10 04:05:39;;;;;;;;;;;11.10;43.00;;;;;;5116600;27;19916;-83
2024/02/10 04:08:32;;;;;;;;;;;11.10;42.90;;;;;;5089969;28;19919;-83
2024/02/10 04:11:13;;;;;;;;;;;11.10;39.60;;;;;;5078615;28;19919;-83
2024/02/10 04:13:58;;;;;;;;;;;11.10;39.60;;;;;;5114284;28;19915;-83
2024/02/10 04:16:55;;;;;;;;;;;11.10;43.10;;;;;;5116949;28;19907;-83
2024/02/10 04:19:37;;;;;;;;;;;11.10;43.00;;;;;;5098742;28;19916;-83
2024/02/10 04:25:10;;;;;;;;;;;11.10;42.90;;;;;;5115623;27;19919;-83
2024/02/10 04:30:43;;;;;;;;;;;11.10;39.60;;;;;;5117834;27;20343;-83
2024/02/10 04:33:19;;;;;;;;;;;11.10;43.00;;;;;;5105133;28;19912;-83
2024/02/10 04:35:45;;;;;;;;;;;11.00;42.80;;;;;;5103341;27;19915;-83
2024/02/10 04:41:08;;;;;;;;;;;11.00;42.80;;;;;;5117247;27;19911;-83
2024/02/10 04:43:35;;;;;;;;;;;10.90;39.50;;;;;;5096728;28;20010;-83
2024/02/10 04:49:04;;;;;;;;;;;10.90;39.50;;;;;;5111963;28;19960;-83
2024/02/10 05:00:39;;;;;;;;;;;10.90;42.70;;;;;;5113317;28;20353;-83
2024/02/10 05:03:25;;;;;;;;;;;10.80;42.60;;;;;;5115500;28;19912;-83
2024/02/10 05:12:25;;;;;;;;;;;10.80;39.40;;;;;;5115756;28;19919;-83
2024/02/10 05:17:53;;;;;;;;;;;10.80;42.70;;;;;;5115547;28;19915;-83
2024/02/10 05:20:21;;;;;;;;;;;10.80;42.80;;;;;;5110495;28;20286;-83
2024/02/10 05:25:50;;;;;;;;;;;10.80;42.60;;;;;;5117501;27;19923;-83
2024/02/10 05:31:56;;;;;;;;;;;10.80;42.60;;;;;;5108078;28;19919;-83
2024/02/10 05:40:28;;;;;;;;;;;10.70;42.40;;;;;;5123203;27;20289;-82
2024/02/10 05:43:04;;;;;;;;;;;10.60;42.40;;;;;;5114376;28;19912;-83
2024/02/10 05:54:45;;;;;;;;;;;10.60;42.30;;;;;;5110249;27;19918;-83
2024/02/10 05:57:43;;;;;;;;;;;10.50;42.20;;;;;;5116781;27;19908;-83
2024/02/10 06:03:11;;;;;;;;;;;10.50;42.30;;;;;;5135537;27;19972;-83
2024/02/10 06:06:15;;;;;;;;;;;10.50;42.30;;;;;;5117815;28;20355;-83
2024/02/10 06:11:43;;;;;;;;;;;10.50;42.30;;;;;;5117930;28;19918;-83
2024/02/10 06:17:23;;;;;;;;;;;10.50;42.50;;;;;;5121088;27;19915;-83
2024/02/10 06:26:19;;;;;;;;;;;10.50;39.10;;;;;;5118485;28;19965;-83
2024/02/10 06:28:49;;;;;;;;;;;10.50;42.30;;;;;;5125724;28;20006;-82
2024/02/10 06:34:18;;;;;;;;;;;10.40;42.20;;;;;;5118991;28;19918;-84
2024/02/10 06:39:47;;;;;;;;;;;10.50;42.30;;;;;;5104619;28;20401;-83
2024/02/10 06:42:13;;;;;;;;;;;10.40;39.00;;;;;;5099221;28;19908;-83
2024/02/10 06:50:45;;;;;;;;;;;10.40;39.00;;;;;;5107561;28;19922;-84
2024/02/10 06:56:14;;;;;;;;;;;10.20;42.10;;;;;;5114076;28;19959;-82
2024/02/10 07:04:52;;;;;;;;;;;9.90;42.70;;;;;;5116854;28;19914;-83
2024/02/10 07:13:49;;;;;;;;;;;9.50;39.20;;;;;;5117091;28;19935;-83
2024/02/10 07:16:49;;;;;;;;;;;9.50;42.40;;;;;;5120190;28;19915;-83
2024/02/10 07:22:17;;;;;;;;;;;9.40;42.40;;;;;;5106639;28;19933;-85
2024/02/10 07:24:46;;;;;;;;;;;9.90;43.00;;;;;;5073702;28;19912;-83
2024/02/10 07:36:20;;;;;;;;;;;9.30;39.00;;;;;;5074745;28;19916;-83
2024/02/10 07:41:48;;;;;;;;;;;9.30;42.30;;;;;;5072604;28;20360;-84
2024/02/10 07:44:43;;;;;;;;;;;9.30;42.80;;;;;;5070607;28;20019;-82
2024/02/10 07:47:13;;;;;;;;;;;9.30;45.50;;;;;;5065963;28;19920;-82
2024/02/10 07:49:46;;;;;;;;;;;9.40;45.70;;;;;;5057651;28;19916;-82
2024/02/10 07:52:45;;;;;;;;;;;9.40;49.40;;;;;;5046321;28;19913;-82
2024/02/10 07:55:12;;;;;;;;;;;9.40;51.30;;;;;;5061949;28;19919;-82
2024/02/10 08:00:41;;;;;;;;;;;9.50;53.50;;;;;;5121564;27;20464;-83
2024/02/10 08:06:32;;;;;;;;;;;9.60;55.10;;;;;;5123460;27;19919;-83
2024/02/10 08:09:00;;;;;;;;;;;9.60;59.10;;;;;;5115333;27;19919;-83
2024/02/10 08:11:43;;;;;;;;;;;9.70;58.40;;;;;;5105007;28;19916;-83
2024/02/10 08:20:15;;;;;;;;;;;9.90;66.20;;;;;;5112023;27;20037;-82
2024/02/10 08:23:01;;;;;;;;;;;10.00;65.50;;;;;;5111290;27;20373;-82
2024/02/10 08:31:36;;;;;;;;;;;10.20;59.80;;;;;;5106695;28;19965;-82
2024/02/10 08:37:05;;;;;;;;;;;10.30;64.30;;;;;;5109440;28;19937;-84
2024/02/10 08:39:31;;;;;;;;;;;10.40;61.00;;;;;;5098888;27;19915;-82
2024/02/10 08:42:01;;;;;;;;;;;10.40;61.10;;;;;;5101272;28;19912;-83
2024/02/10 08:44:31;;;;;;;;;;;10.50;58.90;;;;;;5097124;28;20366;-83
2024/02/10 08:50:01;;;;;;;;;;;10.60;59.00;;;;;;5112512;28;19919;-83
2024/02/10 08:52:28;;;;;;;;;;;10.70;60.90;;;;;;5104337;28;19922;-83
2024/02/10 08:55:05;;;;;;;;;;;10.80;63.00;;;;;;5095484;28;19912;-83
2024/02/10 08:57:37;;;;;;;;;;;10.80;63.90;;;;;;5097315;28;19953;-83
2024/02/10 09:00:08;;;;;;;;;;;10.90;64.60;;;;;;5092937;28;19986;-83
2024/02/10 09:05:38;;;;;;;;;;;11.10;66.20;;;;;;5115369;28;20278;-83
2024/02/10 09:11:45;;;;;;;;;;;11.30;67.60;;;;;;5115723;27;20320;-83
2024/02/10 09:14:25;;;;;;;;;;;11.50;57.90;;;;;;5103985;28;19912;-83
2024/02/10 09:26:15;;;;;;;;;;;12.00;63.20;;;;;;5113349;28;20386;-84
2024/02/10 09:31:48;;;;;;;;;;;12.20;55.20;;;;;;5106704;28;19980;-85
2024/02/10 09:40:31;;;;;;;;;;;12.60;45.30;;;;;;5115286;28;19914;-86
2024/02/10 09:43:14;;;;;;;;;;;12.80;41.20;;;;;;5107247;28;19912;-83
2024/02/10 09:49:13;;;;;;;;;;;13.00;44.80;;;;;;5114732;28;19915;-80
2024/02/10 09:58:07;;;;;;;;;;;13.50;24.80;;;;;;5110320;27;19966;-83
2024/02/10 10:03:43;;;;;;;;;;;13.70;5.90;;;;;;5112000;28;20324;-84
2024/02/10 10:09:29;;;;;;;;;;;13.80;2.60;;;;;;5114774;28;19915;-84
2024/02/10 10:12:31;;;;;;;;;;;13.90;1.00;;;;;;5094808;28;20359;-83
2024/02/10 10:15:08;;;;;;;;;;;14.00;1.00;;;;;;5096033;28;19918;-83
2024/02/10 10:21:13;;;;;;;;;;;14.10;1.00;;;;;;5097423;28;20003;-83
2024/02/10 10:26:42;;;;;;;;;;;14.20;1.00;;;;;;5111768;28;19915;-83
2024/02/10 10:29:37;;;;;;;;;;;14.20;1.00;;;;;;5107953;28;19912;-83
2024/02/10 10:32:04;;;;;;;;;;;14.30;1.00;;;;;;5092579;28;19999;-83
2024/02/10 10:34:44;;;;;;;;;;;14.50;1.00;;;;;;5117731;28;19916;-82
2024/02/10 10:37:14;;;;;;;;;;;14.50;1.00;;;;;;5114546;28;19911;-86
2024/02/10 10:42:44;;;;;;;;;;;14.70;1.00;;;;;;5115377;28;19918;-87
2024/02/10 10:45:11;;;;;;;;;;;14.80;1.00;;;;;;5095739;28;19915;-82
2024/02/10 10:47:49;;;;;;;;;;;14.60;1.00;;;;;;5075821;28;19966;-82
2024/02/10 10:53:28;;;;;;;;;;;14.80;1.00;;;;;;5127654;28;19918;-83
2024/02/10 11:02:14;;;;;;;;;;;14.80;1.00;;;;;;5097829;28;19962;-82
2024/02/10 11:10:45;;;;;;;;;;;15.30;1.00;;;;;;5117613;28;19919;-83
2024/02/10 11:13:43;;;;;;;;;;;15.40;1.00;;;;;;5133502;27;19907;-82
2024/02/10 11:19:15;;;;;;;;;;;15.50;1.00;;;;;;5117572;28;20412;-83
2024/02/10 11:22:13;;;;;;;;;;;15.60;1.00;;;;;;5117543;28;19908;-83
2024/02/10 11:25:14;;;;;;;;;;;15.60;1.00;;;;;;5087103;27;19914;-82
2024/02/10 11:30:43;;;;;;;;;;;15.90;1.00;;;;;;5117677;28;20328;-80
2024/02/10 11:33:17;;;;;;;;;;;16.10;1.00;;;;;;5119127;28;19916;-87
2024/02/10 11:36:13;;;;;;;;;;;16.20;1.00;;;;;;5111894;27;19955;-86
2024/02/10 11:39:13;;;;;;;;;;;16.30;1.00;;;;;;5103497;28;19912;-85
2024/02/10 11:48:01;;;;;;;;;;;16.60;1.00;;;;;;5122982;27;20325;-83
2024/02/10 11:54:07;;;;;;;;;;;16.80;1.00;;;;;;5116493;28;20370;-83
2024/02/10 11:56:55;;;;;;;;;;;16.80;1.00;;;;;;5117091;28;19915;-83
2024/02/10 12:02:43;;;;;;;;;;;16.80;1.00;;;;;;5121430;27;19960;-83
2024/02/10 12:08:43;;;;;;;;;;;16.90;1.00;;;;;;5107900;28;19919;-82
2024/02/10 12:11:43;;;;;;;;;;;16.90;1.00;;;;;;5115039;28;19911;-82
2024/02/10 12:14:43;;;;;;;;;;;17.10;1.00;;;;;;5102846;27;19912;-82
2024/02/10 12:17:09;;;;;;;;;;;17.20;1.00;;;;;;5123356;27;20354;-83
2024/02/10 12:22:37;;;;;;;;;;;16.80;1.00;;;;;;5116892;28;19915;-86
2024/02/10 12:25:22;;;;;;;;;;;16.70;1.00;;;;;;5098787;28;19908;-86
2024/02/10 12:28:25;;;;;;;;;;;16.70;1.00;;;;;;5078251;28;19908;-86
2024/02/10 12:31:27;;;;;;;;;;;16.40;1.00;;;;;;5115178;28;19924;-86
2024/02/10 12:39:43;;;;;;;;;;;16.50;1.00;;;;;;5115327;28;19915;-81
2024/02/10 12:42:20;;;;;;;;;;;16.50;1.00;;;;;;5124809;27;19912;-79
2024/02/10 12:48:08;;;;;;;;;;;15.90;1.00;;;;;;5100109;28;19935;-85
2024/02/10 12:56:42;;;;;;;;;;;15.90;1.00;;;;;;5115674;28;19968;-83
2024/02/10 12:59:10;;;;;;;;;;;16.00;1.00;;;;;;5115628;28;19908;-87
2024/02/10 13:01:43;;;;;;;;;;;16.00;1.00;;;;;;5115647;28;20375;-81
2024/02/10 13:04:20;;;;;;;;;;;16.10;1.00;;;;;;5115690;28;19960;-74
2024/02/10 13:09:49;;;;;;;;;;;16.10;1.00;;;;;;5115267;28;19942;-83
2024/02/10 13:12:20;;;;;;;;;;;16.00;1.00;;;;;;5096947;28;20335;-79
2024/02/10 13:14:46;;;;;;;;;;;15.90;1.00;;;;;;5117674;27;20336;-81
2024/02/10 13:17:13;;;;;;;;;;;16.00;1.00;;;;;;5115718;27;19965;-80
2024/02/10 13:19:43;;;;;;;;;;;15.90;1.00;;;;;;5115160;28;19957;-82
2024/02/10 13:22:11;;;;;;;;;;;15.90;1.00;;;;;;5112850;28;19943;-79
2024/02/10 13:24:36;;;;;;;;;;;15.90;1.00;;;;;;5114211;28;19935;-77
2024/02/10 13:36:21;;;;;;;;;;;15.70;1.00;;;;;;5101140;28;20427;-78
2024/02/10 14:09:17;;;;;;;;;;;15.30;1.00;;;;;;5106057;28;19914;-81
2024/02/10 14:12:13;;;;;;;;;;;15.30;1.00;;;;;;5117698;28;19915;-80
2024/02/10 14:15:16;;;;;;;;;;;15.30;1.00;;;;;;5114407;28;19911;-80
2024/02/10 14:17:48;;;;;;;;;;;15.20;1.00;;;;;;5114741;28;19914;-90
2024/02/10 14:20:22;;;;;;;;;;;15.20;1.00;;;;;;5097111;28;19967;-90
2024/02/10 14:23:13;;;;;;;;;;;15.10;1.00;;;;;;5097155;28;19911;-88
2024/02/10 14:25:43;;;;;;;;;;;15.10;1.00;;;;;;5113990;28;20422;-86
2024/02/10 14:28:23;;;;;;;;;;;15.10;1.00;;;;;;5096410;28;20305;-81
2024/02/10 14:31:16;;;;;;;;;;;15.00;1.00;;;;;;5095893;28;20381;-83
2024/02/10 14:40:15;;;;;;;;;;;14.90;1.00;;;;;;5053672;28;19919;-85
2024/02/10 14:42:41;;;;;;;;;;;14.90;1.00;;;;;;5054017;28;20332;-85
2024/02/10 14:51:31;;;;;;;;;;;14.80;1.00;;;;;;5055921;28;19917;-86
2024/02/10 14:53:59;;;;;;;;;;;14.80;1.00;;;;;;5056071;28;19909;-87
2024/02/10 14:59:29;;;;;;;;;;;14.80;1.00;;;;;;5042884;28;19992;-87
2024/02/10 15:02:15;;;;;;;;;;;14.80;1.00;;;;;;5036013;28;20052;-87
2024/02/10 15:04:47;;;;;;;;;;;14.70;1.00;;;;;;5038068;28;19909;-79
2024/02/10 15:07:43;;;;;;;;;;;14.70;1.00;;;;;;5053912;28;20011;-78
2024/02/10 15:10:13;;;;;;;;;;;14.70;1.00;;;;;;5055043;28;19913;-79
2024/02/10 15:19:19;;;;;;;;;;;14.80;1.00;;;;;;5117883;28;19957;-89
2024/02/10 15:24:48;;;;;;;;;;;14.70;1.00;;;;;;5117714;28;19930;-84
2024/02/10 15:27:44;;;;;;;;;;;14.80;1.00;;;;;;5098541;28;20363;-83
2024/02/10 15:30:13;;;;;;;;;;;14.60;1.00;;;;;;5078855;28;19916;-83
2024/02/10 15:32:39;;;;;;;;;;;14.50;1.00;;;;;;5085707;28;19920;-88
2024/02/10 15:35:37;;;;;;;;;;;14.40;1.00;;;;;;5099658;28;20599;-85
2024/02/10 15:41:14;;;;;;;;;;;14.10;1.00;;;;;;5098176;28;20027;-87
2024/02/10 15:47:13;;;;;;;;;;;13.90;1.00;;;;;;5116488;28;19923;-87
2024/02/10 15:50:13;;;;;;;;;;;13.80;1.00;;;;;;5098954;28;19907;-77
2024/02/10 15:52:49;;;;;;;;;;;13.70;1.00;;;;;;5117503;27;19915;-77
2024/02/10 16:01:21;;;;;;;;;;;13.40;1.00;;;;;;5096303;28;19915;-78
2024/02/10 16:04:13;;;;;;;;;;;13.40;1.00;;;;;;5121898;27;19960;-77
2024/02/10 16:07:13;;;;;;;;;;;13.40;1.00;;;;;;5116551;28;19908;-77
2024/02/10 16:10:13;;;;;;;;;;;13.30;1.00;;;;;;5116647;28;19930;-78
2024/02/10 16:12:45;;;;;;;;;;;13.20;1.00;;;;;;5113024;27;19916;-78
2024/02/10 16:15:14;;;;;;;;;;;13.10;1.00;;;;;;5117712;27;20012;-77
2024/02/10 16:17:46;;;;;;;;;;;13.00;1.00;;;;;;5103355;28;19915;-78
2024/02/10 16:20:26;;;;;;;;;;;12.90;1.00;;;;;;5103475;28;20343;-85
2024/02/10 16:29:25;;;;;;;;;;;12.80;1.00;;;;;;5116058;28;19961;-83
2024/02/10 16:35:13;;;;;;;;;;;12.70;1.00;;;;;;5124332;27;19969;-86
2024/02/10 16:38:13;;;;;;;;;;;12.60;1.00;;;;;;5098215;28;19907;-86
2024/02/10 16:41:13;;;;;;;;;;;12.60;1.00;;;;;;5098427;28;20027;-88
2024/02/10 16:44:03;;;;;;;;;;;12.60;1.00;;;;;;5078061;28;20386;-86
2024/02/10 16:46:44;;;;;;;;;;;12.60;1.00;;;;;;5101860;28;20333;-86
2024/02/10 16:49:14;;;;;;;;;;;12.50;1.00;;;;;;5096073;28;19919;-86
2024/02/10 16:51:44;;;;;;;;;;;12.40;1.00;;;;;;5104606;28;19957;-86
2024/02/10 16:54:20;;;;;;;;;;;12.50;1.00;;;;;;5113748;28;19911;-86
2024/02/10 17:00:22;;;;;;;;;;;12.40;1.00;;;;;;5115997;28;20173;-87
2024/02/10 17:03:13;;;;;;;;;;;12.40;1.00;;;;;;5092230;28;19912;-88
2024/02/10 17:05:48;;;;;;;;;;;12.30;1.00;;;;;;5115425;28;20282;-88
2024/02/10 17:11:43;;;;;;;;;;;12.30;1.00;;;;;;5111820;28;19918;-88
2024/02/10 17:14:13;;;;;;;;;;;12.30;1.00;;;;;;5115856;27;19914;-86
2024/02/10 17:16:43;;;;;;;;;;;12.20;1.00;;;;;;5097741;28;19912;-86
2024/02/10 17:22:15;;;;;;;;;;;12.20;1.00;;;;;;5105181;28;19918;-80
2024/02/10 17:25:18;;;;;;;;;;;12.20;1.00;;;;;;5115273;28;20373;-81
2024/02/10 17:28:08;;;;;;;;;;;12.20;1.00;;;;;;5096754;28;19907;-82
2024/02/10 17:30:43;;;;;;;;;;;12.20;1.00;;;;;;5116881;27;19908;-80
2024/02/10 17:33:10;;;;;;;;;;;12.10;1.00;;;;;;5114797;28;19958;-80
2024/02/10 17:35:36;;;;;;;;;;;12.10;1.00;;;;;;5128272;27;19926;-78
2024/02/10 17:38:14;;;;;;;;;;;12.10;1.00;;;;;;5123901;27;19912;-79
2024/02/10 17:40:55;;;;;;;;;;;12.10;1.00;;;;;;5128136;27;19914;-83
2024/02/10 17:43:23;;;;;;;;;;;12.10;1.00;;;;;;5114789;28;19911;-82
2024/02/10 17:48:51;;;;;;;;;;;12.00;1.00;;;;;;5111393;27;19918;-79
2024/02/10 17:51:17;;;;;;;;;;;12.00;1.00;;;;;;5112699;28;19916;-82
2024/02/10 17:54:18;;;;;;;;;;;12.00;1.00;;;;;;5125995;27;19950;-84
2024/02/10 17:57:18;;;;;;;;;;;12.00;1.00;;;;;;5098486;28;19908;-83
2024/02/10 18:00:16;;;;;;;;;;;12.00;1.00;;;;;;5120934;27;19979;-82
2024/02/10 18:03:13;;;;;;;;;;;12.00;1.00;;;;;;5110655;27;19957;-85
2024/02/10 18:05:45;;;;;;;;;;;11.90;1.00;;;;;;5105362;28;19908;-80
2024/02/10 18:08:13;;;;;;;;;;;11.90;1.00;;;;;;5095225;28;20271;-80
2024/02/10 18:10:43;;;;;;;;;;;11.90;1.00;;;;;;5096218;28;19956;-79
2024/02/10 18:13:16;;;;;;;;;;;11.90;1.00;;;;;;5115286;28;19923;-81
2024/02/10 18:16:16;;;;;;;;;;;12.00;1.00;;;;;;5114376;28;19964;-82
2024/02/10 18:18:44;;;;;;;;;;;12.00;1.00;;;;;;5116789;28;19919;-78
2024/02/10 18:21:14;;;;;;;;;;;11.90;1.00;;;;;;5127918;28;19972;-85
2024/02/10 18:24:16;;;;;;;;;;;12.00;1.00;;;;;;5096379;28;20006;-86
2024/02/10 18:26:46;;;;;;;;;;;12.00;1.00;;;;;;5096864;28;19993;-85
2024/02/10 18:29:16;;;;;;;;;;;11.90;1.00;;;;;;5114667;28;19918;-84
2024/02/10 18:32:13;;;;;;;;;;;11.90;1.00;;;;;;5113352;28;19922;-83
2024/02/10 18:34:45;;;;;;;;;;;11.90;1.00;;;;;;5113250;28;19916;-84
2024/02/10 18:37:17;;;;;;;;;;;11.90;1.00;;;;;;5096087;28;19908;-77
2024/02/10 18:40:05;;;;;;;;;;;11.90;1.00;;;;;;5126538;28;20259;-77
2024/02/10 18:42:31;;;;;;;;;;;11.80;1.00;;;;;;5106756;28;19915;-77
2024/02/10 18:48:25;;;;;;;;;;;11.90;1.00;;;;;;5112507;28;19926;-79
2024/02/10 18:51:16;;;;;;;;;;;11.80;1.00;;;;;;5109293;28;19912;-81
2024/02/10 18:53:47;;;;;;;;;;;11.80;1.00;;;;;;5094155;28;19908;-87
2024/02/10 18:56:21;;;;;;;;;;;11.80;1.00;;;;;;5113868;28;20560;-82
2024/02/10 18:59:18;;;;;;;;;;;11.80;1.00;;;;;;5100176;28;20006;-82
2024/02/10 19:02:01;;;;;;;;;;;11.70;1.00;;;;;;5113972;28;19908;-82
2024/02/10 19:04:44;;;;;;;;;;;11.70;1.00;;;;;;5113974;28;19908;-83
2024/02/10 19:07:16;;;;;;;;;;;11.60;1.00;;;;;;5107943;28;19916;-77
2024/02/10 19:09:46;;;;;;;;;;;11.60;1.00;;;;;;5115486;28;19914;-77
2024/02/10 19:12:48;;;;;;;;;;;11.60;1.00;;;;;;5113680;28;19919;-77
2024/02/10 19:15:14;;;;;;;;;;;11.60;1.00;;;;;;5114048;28;19942;-76
2024/02/10 19:18:07;;;;;;;;;;;11.60;1.00;;;;;;5113594;28;19963;-76
2024/02/10 19:20:43;;;;;;;;;;;11.60;1.00;;;;;;5116863;28;20021;-81
2024/02/10 19:23:14;;;;;;;;;;;11.60;1.00;;;;;;5110369;28;19908;-82
2024/02/10 19:25:49;;;;;;;;;;;11.50;1.00;;;;;;5117405;28;19915;-81
2024/02/10 19:28:45;;;;;;;;;;;11.50;1.00;;;;;;5116030;28;19907;-82
2024/02/10 19:31:14;;;;;;;;;;;11.50;1.00;;;;;;5096604;28;19955;-81
2024/02/10 19:33:40;;;;;;;;;;;11.40;1.00;;;;;;5128207;27;19916;-81
2024/02/10 19:36:32;;;;;;;;;;;11.40;1.00;;;;;;5136670;27;20002;-82
2024/02/10 19:42:20;;;;;;;;;;;11.30;1.00;;;;;;5111860;28;19953;-83
2024/02/10 19:45:14;;;;;;;;;;;11.30;1.00;;;;;;5131189;27;19911;-83
2024/02/10 19:47:48;;;;;;;;;;;11.30;1.00;;;;;;5106364;28;19916;-83
2024/02/10 19:53:46;;;;;;;;;;;11.20;1.00;;;;;;5100218;28;20412;-81
2024/02/10 19:59:20;;;;;;;;;;;11.10;1.00;;;;;;5096492;28;20287;-81
2024/02/10 20:02:13;;;;;;;;;;;11.10;1.00;;;;;;5096540;28;19919;-81
2024/02/10 20:04:44;;;;;;;;;;;11.00;1.00;;;;;;5113800;28;19908;-81
2024/02/10 20:07:14;;;;;;;;;;;11.00;1.00;;;;;;5115795;28;19907;-81
2024/02/10 20:09:43;;;;;;;;;;;11.00;1.00;;;;;;5122900;27;20340;-80
2024/02/10 20:12:16;;;;;;;;;;;10.90;1.00;;;;;;5124891;27;19933;-80
2024/02/10 20:14:44;;;;;;;;;;;10.90;1.00;;;;;;5116391;27;19914;-81
2024/02/10 20:17:14;;;;;;;;;;;10.80;1.00;;;;;;5116084;27;19999;-81
2024/02/10 20:19:43;;;;;;;;;;;10.90;1.00;;;;;;5103197;28;19980;-81
2024/02/10 20:22:11;;;;;;;;;;;10.80;1.00;;;;;;5098496;28;20274;-82
2024/02/10 20:28:01;;;;;;;;;;;10.70;1.00;;;;;;5116285;28;19908;-81
2024/02/10 20:30:49;;;;;;;;;;;10.60;1.00;;;;;;5118064;28;19915;-81
2024/02/10 20:33:32;;;;;;;;;;;10.60;1.00;;;;;;5090007;28;19916;-81
2024/02/10 20:36:14;;;;;;;;;;;10.50;1.00;;;;;;5093550;28;19971;-81
2024/02/10 20:39:14;;;;;;;;;;;10.50;1.00;;;;;;5104338;28;20011;-81
2024/02/10 20:41:43;;;;;;;;;;;10.30;1.00;;;;;;5110420;28;19918;-81
2024/02/10 20:44:14;;;;;;;;;;;10.30;1.00;;;;;;5116059;28;19911;-80
2024/02/10 20:46:46;;;;;;;;;;;10.20;1.00;;;;;;5116048;28;19912;-81
2024/02/10 20:49:14;;;;;;;;;;;10.20;1.00;;;;;;5106386;28;19912;-81
2024/02/10 20:51:46;;;;;;;;;;;10.10;1.00;;;;;;5093639;28;19965;-82
2024/02/10 20:54:20;;;;;;;;;;;10.00;1.00;;;;;;5115962;28;19914;-82
2024/02/10 20:57:02;;;;;;;;;;;9.90;1.00;;;;;;5105095;28;19912;-82
2024/02/10 20:59:44;;;;;;;;;;;9.90;1.00;;;;;;5083587;28;19912;-82
2024/02/10 21:02:44;;;;;;;;;;;9.90;1.00;;;;;;5095369;28;19908;-81
2024/02/10 21:05:14;;;;;;;;;;;9.80;1.00;;;;;;5115647;28;19998;-82
2024/02/10 21:07:44;;;;;;;;;;;9.70;1.00;;;;;;5114734;28;19962;-81
2024/02/10 21:13:16;;;;;;;;;;;9.60;1.00;;;;;;5115339;28;19919;-82
2024/02/10 21:15:44;;;;;;;;;;;9.60;2.00;;;;;;5124166;27;19911;-82
2024/02/10 21:18:19;;;;;;;;;;;9.60;5.10;;;;;;5105454;28;19958;-82
2024/02/10 21:24:14;;;;;;;;;;;9.50;7.00;;;;;;5114215;28;20415;-81
2024/02/10 21:29:43;;;;;;;;;;;9.40;9.00;;;;;;5095381;28;19908;-80
2024/02/10 21:32:44;;;;;;;;;;;9.40;9.70;;;;;;5109496;28;20363;-80
2024/02/10 21:35:14;;;;;;;;;;;9.40;13.00;;;;;;5114737;28;19919;-81
2024/02/10 21:38:15;;;;;;;;;;;9.30;12.90;;;;;;5089038;28;20057;-81
2024/02/10 21:40:43;;;;;;;;;;;9.40;15.30;;;;;;5113474;28;19918;-81
2024/02/10 21:46:16;;;;;;;;;;;9.30;14.30;;;;;;5105883;28;19961;-82
2024/02/10 21:48:44;;;;;;;;;;;9.20;15.20;;;;;;5109296;28;19909;-81
2024/02/10 21:51:13;;;;;;;;;;;9.20;15.50;;;;;;5117550;27;19964;-81
2024/02/10 21:53:44;;;;;;;;;;;9.20;18.90;;;;;;5114581;28;19907;-81
2024/02/10 21:56:43;;;;;;;;;;;9.20;17.70;;;;;;5076942;28;20418;-81
2024/02/10 21:59:38;;;;;;;;;;;9.20;22.00;;;;;;5105515;28;20006;-81
2024/02/10 22:02:17;;;;;;;;;;;9.20;19.40;;;;;;5107887;28;19951;-81
2024/02/10 22:04:44;;;;;;;;;;;9.20;20.60;;;;;;5111394;28;19908;-81